Terminal Aerodrome Forecast
Issued by NWS

Home | Current Version | Previous Version | Text Only | Print | Product List | Glossary On
Versions: 1 2 3 4 5 6 7 8 9 10 11 12 13 14 15
000
FTUS41 KCAR 271120
TAFFVE
TAF
KFVE 271120Z 2712/2812 VRB03KT P6SM FEW150
     FM271600 16005KT P6SM OVC050
     FM272100 17005KT 3SM -SHRA VCTS OVC060CB
     FM280600 VRB03KT 3SM -SHRA OVC008
     FM280800 VRB03KT 6SM BR OVC008
     FM280900 VRB03KT 6SM BR OVC003=

USA.gov is the U.S. government's official web portal to all federal, state and local government web resources and services.